sensor_id;sensor_type;location;lat;lon;timestamp;temperature;humidity
10249;DHT22;5169;50.560;9.714;2024-02-04T00:01:06;8.70;99.90
10249;DHT22;5169;50.560;9.714;2024-02-04T00:03:32;8.70;99.90
10249;DHT22;5169;50.560;9.714;2024-02-04T00:05:58;8.70;99.90
10249;DHT22;5169;50.560;9.714;2024-02-04T00:08:23;8.70;99.90
10249;DHT22;5169;50.560;9.714;2024-02-04T00:10:49;8.70;99.90
10249;DHT22;5169;50.560;9.714;2024-02-04T00:13:15;8.70;99.90
10249;DHT22;5169;50.560;9.714;2024-02-04T00:15:40;8.70;99.90
10249;DHT22;5169;50.560;9.714;2024-02-04T00:18:06;8.70;99.90
10249;DHT22;5169;50.560;9.714;2024-02-04T00:20:32;8.70;99.90
10249;DHT22;5169;50.560;9.714;2024-02-04T00:22:58;8.70;99.90
10249;DHT22;5169;50.560;9.714;2024-02-04T00:25:24;8.60;99.90
10249;DHT22;5169;50.560;9.714;2024-02-04T00:27:49;8.60;99.90
10249;DHT22;5169;50.560;9.714;2024-02-04T00:30:15;8.60;99.90
10249;DHT22;5169;50.560;9.714;2024-02-04T00:32:43;8.60;99.90
10249;DHT22;5169;50.560;9.714;2024-02-04T00:35:09;8.70;99.90
10249;DHT22;5169;50.560;9.714;2024-02-04T00:37:40;8.60;99.90
10249;DHT22;5169;50.560;9.714;2024-02-04T00:40:06;8.60;99.90
10249;DHT22;5169;50.560;9.714;2024-02-04T00:42:34;8.60;99.90
10249;DHT22;5169;50.560;9.714;2024-02-04T00:45:02;8.60;99.90
10249;DHT22;5169;50.560;9.714;2024-02-04T00:47:28;8.60;99.90
10249;DHT22;5169;50.560;9.714;2024-02-04T00:49:53;8.60;99.90
10249;DHT22;5169;50.560;9.714;2024-02-04T00:52:19;8.60;99.90
10249;DHT22;5169;50.560;9.714;2024-02-04T00:54:45;8.60;99.90
10249;DHT22;5169;50.560;9.714;2024-02-04T00:57:11;8.60;99.90
10249;DHT22;5169;50.560;9.714;2024-02-04T00:59:36;8.60;99.90
10249;DHT22;5169;50.560;9.714;2024-02-04T01:02:02;8.60;99.90
10249;DHT22;5169;50.560;9.714;2024-02-04T01:04:30;8.70;99.90
10249;DHT22;5169;50.560;9.714;2024-02-04T01:06:58;8.60;99.90
10249;DHT22;5169;50.560;9.714;2024-02-04T01:09:24;8.60;99.90
10249;DHT22;5169;50.560;9.714;2024-02-04T01:11:52;8.60;99.90
10249;DHT22;5169;50.560;9.714;2024-02-04T01:14:20;8.60;99.90
10249;DHT22;5169;50.560;9.714;2024-02-04T01:16:48;8.60;99.90
10249;DHT22;5169;50.560;9.714;2024-02-04T01:19:14;8.60;99.90
10249;DHT22;5169;50.560;9.714;2024-02-04T01:21:39;8.60;99.90
10249;DHT22;5169;50.560;9.714;2024-02-04T01:24:05;8.60;99.90
10249;DHT22;5169;50.560;9.714;2024-02-04T01:26:31;8.60;99.90
10249;DHT22;5169;50.560;9.714;2024-02-04T01:28:57;8.60;99.90
10249;DHT22;5169;50.560;9.714;2024-02-04T01:31:22;8.60;99.90
10249;DHT22;5169;50.560;9.714;2024-02-04T01:33:48;8.60;99.90
10249;DHT22;5169;50.560;9.714;2024-02-04T01:36:14;8.60;99.90
10249;DHT22;5169;50.560;9.714;2024-02-04T01:38:39;8.60;99.90
10249;DHT22;5169;50.560;9.714;2024-02-04T01:41:05;8.60;99.90
10249;DHT22;5169;50.560;9.714;2024-02-04T01:43:36;8.60;99.90
10249;DHT22;5169;50.560;9.714;2024-02-04T01:46:03;8.60;99.90
10249;DHT22;5169;50.560;9.714;2024-02-04T01:48:29;8.60;99.90
10249;DHT22;5169;50.560;9.714;2024-02-04T01:50:58;8.60;99.90
10249;DHT22;5169;50.560;9.714;2024-02-04T01:53:26;8.60;99.90
10249;DHT22;5169;50.560;9.714;2024-02-04T01:55:53;8.60;99.90
10249;DHT22;5169;50.560;9.714;2024-02-04T01:58:20;8.60;99.90
10249;DHT22;5169;50.560;9.714;2024-02-04T02:00:47;8.60;99.90
10249;DHT22;5169;50.560;9.714;2024-02-04T02:03:18;8.60;99.90
10249;DHT22;5169;50.560;9.714;2024-02-04T02:05:45;8.60;99.90
10249;DHT22;5169;50.560;9.714;2024-02-04T02:08:12;8.60;99.90
10249;DHT22;5169;50.560;9.714;2024-02-04T02:10:40;8.60;99.90
10249;DHT22;5169;50.560;9.714;2024-02-04T02:13:20;8.60;99.90
10249;DHT22;5169;50.560;9.714;2024-02-04T02:15:51;8.60;99.90
10249;DHT22;5169;50.560;9.714;2024-02-04T02:26:37;8.70;99.90
10249;DHT22;5169;50.560;9.714;2024-02-04T02:29:06;8.70;99.90
10249;DHT22;5169;50.560;9.714;2024-02-04T02:31:35;8.70;99.90
10249;DHT22;5169;50.560;9.714;2024-02-04T02:34:03;8.60;99.90
10249;DHT22;5169;50.560;9.714;2024-02-04T02:36:35;8.60;99.90
10249;DHT22;5169;50.560;9.714;2024-02-04T02:41:38;8.70;99.90
10249;DHT22;5169;50.560;9.714;2024-02-04T02:44:05;8.60;99.90
10249;DHT22;5169;50.560;9.714;2024-02-04T02:46:36;8.60;99.90
10249;DHT22;5169;50.560;9.714;2024-02-04T02:49:04;8.60;99.90
10249;DHT22;5169;50.560;9.714;2024-02-04T02:51:32;8.60;99.90
10249;DHT22;5169;50.560;9.714;2024-02-04T02:53:58;8.60;99.90
10249;DHT22;5169;50.560;9.714;2024-02-04T02:56:26;8.50;99.90
10249;DHT22;5169;50.560;9.714;2024-02-04T02:58:52;8.50;99.90
10249;DHT22;5169;50.560;9.714;2024-02-04T03:01:17;8.50;99.90
10249;DHT22;5169;50.560;9.714;2024-02-04T03:03:43;8.50;99.90
10249;DHT22;5169;50.560;9.714;2024-02-04T03:06:09;8.50;99.90
10249;DHT22;5169;50.560;9.714;2024-02-04T03:08:34;8.50;99.90
10249;DHT22;5169;50.560;9.714;2024-02-04T03:11:03;8.50;99.90
10249;DHT22;5169;50.560;9.714;2024-02-04T03:13:28;8.50;99.90
10249;DHT22;5169;50.560;9.714;2024-02-04T03:15:55;8.50;99.90
10249;DHT22;5169;50.560;9.714;2024-02-04T03:18:21;8.50;99.90
10249;DHT22;5169;50.560;9.714;2024-02-04T03:20:49;8.50;99.90
10249;DHT22;5169;50.560;9.714;2024-02-04T03:23:17;8.50;99.90
10249;DHT22;5169;50.560;9.714;2024-02-04T03:25:43;8.50;99.90
10249;DHT22;5169;50.560;9.714;2024-02-04T03:28:08;8.50;99.90
10249;DHT22;5169;50.560;9.714;2024-02-04T03:30:34;8.50;99.90
10249;DHT22;5169;50.560;9.714;2024-02-04T03:33:00;8.40;99.90
10249;DHT22;5169;50.560;9.714;2024-02-04T03:35:27;8.40;99.90
10249;DHT22;5169;50.560;9.714;2024-02-04T03:37:53;8.40;99.90
10249;DHT22;5169;50.560;9.714;2024-02-04T03:40:21;8.40;99.90
10249;DHT22;5169;50.560;9.714;2024-02-04T03:42:49;8.40;99.90
10249;DHT22;5169;50.560;9.714;2024-02-04T03:45:15;8.30;99.90
10249;DHT22;5169;50.560;9.714;2024-02-04T03:47:41;8.40;99.90
10249;DHT22;5169;50.560;9.714;2024-02-04T03:50:07;8.40;99.90
10249;DHT22;5169;50.560;9.714;2024-02-04T03:52:32;8.40;99.90
10249;DHT22;5169;50.560;9.714;2024-02-04T03:54:58;8.40;99.90
10249;DHT22;5169;50.560;9.714;2024-02-04T03:57:25;8.40;99.90
10249;DHT22;5169;50.560;9.714;2024-02-04T03:59:50;8.40;99.90
10249;DHT22;5169;50.560;9.714;2024-02-04T04:02:16;8.30;99.90
10249;DHT22;5169;50.560;9.714;2024-02-04T04:04:41;8.30;99.90
10249;DHT22;5169;50.560;9.714;2024-02-04T04:07:08;8.30;99.90
10249;DHT22;5169;50.560;9.714;2024-02-04T04:09:34;8.30;99.90
10249;DHT22;5169;50.560;9.714;2024-02-04T04:12:02;8.30;99.90
10249;DHT22;5169;50.560;9.714;2024-02-04T04:14:28;8.40;99.90
10249;DHT22;5169;50.560;9.714;2024-02-04T04:16:53;8.40;99.90
10249;DHT22;5169;50.560;9.714;2024-02-04T04:19:19;8.40;99.90
10249;DHT22;5169;50.560;9.714;2024-02-04T04:21:45;8.40;99.90
10249;DHT22;5169;50.560;9.714;2024-02-04T04:24:10;8.40;99.90
10249;DHT22;5169;50.560;9.714;2024-02-04T04:26:36;8.40;99.90
10249;DHT22;5169;50.560;9.714;2024-02-04T04:29:02;8.40;99.90
10249;DHT22;5169;50.560;9.714;2024-02-04T04:31:27;8.40;99.90
10249;DHT22;5169;50.560;9.714;2024-02-04T04:33:54;8.40;99.90
10249;DHT22;5169;50.560;9.714;2024-02-04T04:36:20;8.40;99.90
10249;DHT22;5169;50.560;9.714;2024-02-04T04:38:45;8.30;99.90
10249;DHT22;5169;50.560;9.714;2024-02-04T04:41:15;8.30;99.90
10249;DHT22;5169;50.560;9.714;2024-02-04T04:43:45;8.40;99.90
10249;DHT22;5169;50.560;9.714;2024-02-04T04:46:13;8.30;99.90
10249;DHT22;5169;50.560;9.714;2024-02-04T04:48:39;8.30;99.90
10249;DHT22;5169;50.560;9.714;2024-02-04T04:51:07;8.30;99.90
10249;DHT22;5169;50.560;9.714;2024-02-04T04:53:33;8.30;99.90
10249;DHT22;5169;50.560;9.714;2024-02-04T04:55:59;8.30;99.90
10249;DHT22;5169;50.560;9.714;2024-02-04T04:58:24;8.30;99.90
10249;DHT22;5169;50.560;9.714;2024-02-04T05:00:50;8.30;99.90
10249;DHT22;5169;50.560;9.714;2024-02-04T05:03:16;8.40;99.90
10249;DHT22;5169;50.560;9.714;2024-02-04T05:05:41;8.40;99.90
10249;DHT22;5169;50.560;9.714;2024-02-04T05:08:09;8.40;99.90
10249;DHT22;5169;50.560;9.714;2024-02-04T05:10:35;8.40;99.90
10249;DHT22;5169;50.560;9.714;2024-02-04T05:13:05;8.30;99.90
10249;DHT22;5169;50.560;9.714;2024-02-04T05:15:31;8.40;99.90
10249;DHT22;5169;50.560;9.714;2024-02-04T05:17:56;8.40;99.90
10249;DHT22;5169;50.560;9.714;2024-02-04T05:20:24;8.40;99.90
10249;DHT22;5169;50.560;9.714;2024-02-04T05:22:50;8.30;99.90
10249;DHT22;5169;50.560;9.714;2024-02-04T05:25:16;8.40;99.90
10249;DHT22;5169;50.560;9.714;2024-02-04T05:27:41;8.40;99.90
10249;DHT22;5169;50.560;9.714;2024-02-04T05:30:07;8.40;99.90
10249;DHT22;5169;50.560;9.714;2024-02-04T05:32:33;8.40;99.90
10249;DHT22;5169;50.560;9.714;2024-02-04T05:34:59;8.40;99.90
10249;DHT22;5169;50.560;9.714;2024-02-04T05:37:24;8.40;99.90
10249;DHT22;5169;50.560;9.714;2024-02-04T05:39:52;8.40;99.90
10249;DHT22;5169;50.560;9.714;2024-02-04T05:42:18;8.40;99.90
10249;DHT22;5169;50.560;9.714;2024-02-04T05:44:46;8.40;99.90
10249;DHT22;5169;50.560;9.714;2024-02-04T05:47:11;8.40;99.90
10249;DHT22;5169;50.560;9.714;2024-02-04T05:49:37;8.40;99.90
10249;DHT22;5169;50.560;9.714;2024-02-04T05:52:03;8.30;99.90
10249;DHT22;5169;50.560;9.714;2024-02-04T05:54:29;8.30;99.90
10249;DHT22;5169;50.560;9.714;2024-02-04T05:56:54;8.30;99.90
10249;DHT22;5169;50.560;9.714;2024-02-04T05:59:20;8.30;99.90
10249;DHT22;5169;50.560;9.714;2024-02-04T06:01:48;8.30;99.90
10249;DHT22;5169;50.560;9.714;2024-02-04T06:04:13;8.40;99.90
10249;DHT22;5169;50.560;9.714;2024-02-04T06:06:39;8.30;99.90
10249;DHT22;5169;50.560;9.714;2024-02-04T06:09:05;8.40;99.90
10249;DHT22;5169;50.560;9.714;2024-02-04T06:11:30;8.40;99.90
10249;DHT22;5169;50.560;9.714;2024-02-04T06:13:56;8.30;99.90
10249;DHT22;5169;50.560;9.714;2024-02-04T06:16:26;8.30;99.90
10249;DHT22;5169;50.560;9.714;2024-02-04T06:18:52;8.30;99.90
10249;DHT22;5169;50.560;9.714;2024-02-04T06:21:23;8.30;99.90
10249;DHT22;5169;50.560;9.714;2024-02-04T06:23:49;8.30;99.90
10249;DHT22;5169;50.560;9.714;2024-02-04T06:26:15;8.30;99.90
10249;DHT22;5169;50.560;9.714;2024-02-04T06:28:40;8.30;99.90
10249;DHT22;5169;50.560;9.714;2024-02-04T06:31:11;8.40;99.90
10249;DHT22;5169;50.560;9.714;2024-02-04T06:33:37;8.30;99.90
10249;DHT22;5169;50.560;9.714;2024-02-04T06:36:08;8.30;99.90
10249;DHT22;5169;50.560;9.714;2024-02-04T06:38:33;8.40;99.90
10249;DHT22;5169;50.560;9.714;2024-02-04T06:40:59;8.40;99.90
10249;DHT22;5169;50.560;9.714;2024-02-04T06:43:24;8.40;99.90
10249;DHT22;5169;50.560;9.714;2024-02-04T06:45:50;8.40;99.90
10249;DHT22;5169;50.560;9.714;2024-02-04T06:48:19;8.40;99.90
10249;DHT22;5169;50.560;9.714;2024-02-04T06:50:49;8.40;99.90
10249;DHT22;5169;50.560;9.714;2024-02-04T06:53:17;8.40;99.90
10249;DHT22;5169;50.560;9.714;2024-02-04T06:55:43;8.40;99.90
10249;DHT22;5169;50.560;9.714;2024-02-04T06:58:09;8.40;99.90
10249;DHT22;5169;50.560;9.714;2024-02-04T07:00:34;8.40;99.90
10249;DHT22;5169;50.560;9.714;2024-02-04T07:03:00;8.30;99.90
10249;DHT22;5169;50.560;9.714;2024-02-04T07:05:26;8.30;99.90
10249;DHT22;5169;50.560;9.714;2024-02-04T07:07:51;8.30;99.90
10249;DHT22;5169;50.560;9.714;2024-02-04T07:10:17;8.20;99.90
10249;DHT22;5169;50.560;9.714;2024-02-04T07:12:46;8.30;99.90
10249;DHT22;5169;50.560;9.714;2024-02-04T07:15:12;8.30;99.90
10249;DHT22;5169;50.560;9.714;2024-02-04T07:17:37;8.40;99.90
10249;DHT22;5169;50.560;9.714;2024-02-04T07:20:04;8.40;99.90
10249;DHT22;5169;50.560;9.714;2024-02-04T07:22:32;8.40;99.90
10249;DHT22;5169;50.560;9.714;2024-02-04T07:25:00;8.40;99.90
10249;DHT22;5169;50.560;9.714;2024-02-04T07:27:26;8.50;99.90
10249;DHT22;5169;50.560;9.714;2024-02-04T07:29:56;8.50;99.90
10249;DHT22;5169;50.560;9.714;2024-02-04T07:32:23;8.50;99.90
10249;DHT22;5169;50.560;9.714;2024-02-04T07:34:49;8.50;99.90
10249;DHT22;5169;50.560;9.714;2024-02-04T07:37:17;8.50;99.90
10249;DHT22;5169;50.560;9.714;2024-02-04T07:39:47;8.50;99.90
10249;DHT22;5169;50.560;9.714;2024-02-04T07:42:15;8.50;99.90
10249;DHT22;5169;50.560;9.714;2024-02-04T07:44:43;8.50;99.90
10249;DHT22;5169;50.560;9.714;2024-02-04T07:47:09;8.50;99.90
10249;DHT22;5169;50.560;9.714;2024-02-04T07:49:37;8.60;99.90
10249;DHT22;5169;50.560;9.714;2024-02-04T07:52:03;8.60;99.90
10249;DHT22;5169;50.560;9.714;2024-02-04T07:54:31;8.70;99.90
10249;DHT22;5169;50.560;9.714;2024-02-04T07:57:01;8.70;99.90
10249;DHT22;5169;50.560;9.714;2024-02-04T07:59:27;8.70;99.90
10249;DHT22;5169;50.560;9.714;2024-02-04T08:01:52;8.70;99.90
10249;DHT22;5169;50.560;9.714;2024-02-04T08:04:18;8.70;99.90
10249;DHT22;5169;50.560;9.714;2024-02-04T08:06:46;8.80;99.90
10249;DHT22;5169;50.560;9.714;2024-02-04T08:09:12;8.80;99.90
10249;DHT22;5169;50.560;9.714;2024-02-04T08:11:38;8.80;99.90
10249;DHT22;5169;50.560;9.714;2024-02-04T08:14:03;8.80;99.90
10249;DHT22;5169;50.560;9.714;2024-02-04T08:16:29;8.80;99.90
10249;DHT22;5169;50.560;9.714;2024-02-04T08:18:59;8.80;99.90
10249;DHT22;5169;50.560;9.714;2024-02-04T08:21:27;8.90;99.90
10249;DHT22;5169;50.560;9.714;2024-02-04T08:23:56;8.80;99.90
10249;DHT22;5169;50.560;9.714;2024-02-04T08:26:24;8.90;99.90
10249;DHT22;5169;50.560;9.714;2024-02-04T08:28:50;8.90;99.90
10249;DHT22;5169;50.560;9.714;2024-02-04T08:31:16;8.90;99.90
10249;DHT22;5169;50.560;9.714;2024-02-04T08:33:46;9.00;99.90
10249;DHT22;5169;50.560;9.714;2024-02-04T08:36:14;9.00;99.90
10249;DHT22;5169;50.560;9.714;2024-02-04T08:38:41;9.00;99.90
10249;DHT22;5169;50.560;9.714;2024-02-04T08:41:08;8.90;99.90
10249;DHT22;5169;50.560;9.714;2024-02-04T08:43:36;8.90;99.90
10249;DHT22;5169;50.560;9.714;2024-02-04T08:46:02;8.90;99.90
10249;DHT22;5169;50.560;9.714;2024-02-04T08:48:28;8.90;99.90
10249;DHT22;5169;50.560;9.714;2024-02-04T08:50:54;8.90;99.90
10249;DHT22;5169;50.560;9.714;2024-02-04T08:53:21;8.90;99.90
10249;DHT22;5169;50.560;9.714;2024-02-04T08:55:49;9.00;99.90
10249;DHT22;5169;50.560;9.714;2024-02-04T08:58:15;9.00;99.90
10249;DHT22;5169;50.560;9.714;2024-02-04T09:00:43;9.00;99.90
10249;DHT22;5169;50.560;9.714;2024-02-04T09:03:08;9.10;99.90
10249;DHT22;5169;50.560;9.714;2024-02-04T09:05:36;9.20;99.90
10249;DHT22;5169;50.560;9.714;2024-02-04T09:08:02;9.20;99.90
10249;DHT22;5169;50.560;9.714;2024-02-04T09:10:30;9.30;99.90
10249;DHT22;5169;50.560;9.714;2024-02-04T09:12:58;9.40;99.90
10249;DHT22;5169;50.560;9.714;2024-02-04T09:15:24;9.40;99.90
10249;DHT22;5169;50.560;9.714;2024-02-04T09:17:50;9.30;99.90
10249;DHT22;5169;50.560;9.714;2024-02-04T09:20:15;9.30;99.90
10249;DHT22;5169;50.560;9.714;2024-02-04T09:22:41;9.30;99.90
10249;DHT22;5169;50.560;9.714;2024-02-04T09:25:07;9.30;99.90
10249;DHT22;5169;50.560;9.714;2024-02-04T09:27:32;9.30;99.90
10249;DHT22;5169;50.560;9.714;2024-02-04T09:29:58;9.30;99.90
10249;DHT22;5169;50.560;9.714;2024-02-04T09:32:24;9.30;99.90
10249;DHT22;5169;50.560;9.714;2024-02-04T09:34:49;9.20;99.90
10249;DHT22;5169;50.560;9.714;2024-02-04T09:37:17;9.20;99.90
10249;DHT22;5169;50.560;9.714;2024-02-04T09:39:43;9.20;99.90
10249;DHT22;5169;50.560;9.714;2024-02-04T09:42:13;9.20;99.90
10249;DHT22;5169;50.560;9.714;2024-02-04T09:44:41;9.10;99.90
10249;DHT22;5169;50.560;9.714;2024-02-04T09:47:07;9.10;99.90
10249;DHT22;5169;50.560;9.714;2024-02-04T09:49:39;9.10;99.90
10249;DHT22;5169;50.560;9.714;2024-02-04T09:52:07;9.10;99.90
10249;DHT22;5169;50.560;9.714;2024-02-04T09:54:55;9.00;99.90
10249;DHT22;5169;50.560;9.714;2024-02-04T09:57:22;9.00;99.90
10249;DHT22;5169;50.560;9.714;2024-02-04T09:59:50;9.10;99.90
10249;DHT22;5169;50.560;9.714;2024-02-04T10:02:16;9.10;99.90
10249;DHT22;5169;50.560;9.714;2024-02-04T10:04:42;9.00;99.90
10249;DHT22;5169;50.560;9.714;2024-02-04T10:07:08;9.00;99.90
10249;DHT22;5169;50.560;9.714;2024-02-04T10:09:34;9.00;99.90
10249;DHT22;5169;50.560;9.714;2024-02-04T10:12:00;9.10;99.90
10249;DHT22;5169;50.560;9.714;2024-02-04T10:14:26;9.20;99.90
10249;DHT22;5169;50.560;9.714;2024-02-04T10:16:54;9.30;99.90
10249;DHT22;5169;50.560;9.714;2024-02-04T10:19:19;9.30;99.90
10249;DHT22;5169;50.560;9.714;2024-02-04T10:21:45;9.30;99.90
10249;DHT22;5169;50.560;9.714;2024-02-04T10:24:11;9.40;99.90
10249;DHT22;5169;50.560;9.714;2024-02-04T10:26:36;9.50;99.90
10249;DHT22;5169;50.560;9.714;2024-02-04T10:29:03;9.40;99.90
10249;DHT22;5169;50.560;9.714;2024-02-04T10:31:29;9.40;99.90
10249;DHT22;5169;50.560;9.714;2024-02-04T10:33:55;9.40;99.90
10249;DHT22;5169;50.560;9.714;2024-02-04T10:36:23;9.40;99.90
10249;DHT22;5169;50.560;9.714;2024-02-04T10:38:49;9.40;99.90
10249;DHT22;5169;50.560;9.714;2024-02-04T10:41:16;9.40;99.90
10249;DHT22;5169;50.560;9.714;2024-02-04T10:43:43;9.30;99.90
10249;DHT22;5169;50.560;9.714;2024-02-04T10:46:13;9.30;99.90
10249;DHT22;5169;50.560;9.714;2024-02-04T10:48:42;9.30;99.90
10249;DHT22;5169;50.560;9.714;2024-02-04T10:51:16;9.30;99.90
10249;DHT22;5169;50.560;9.714;2024-02-04T10:53:45;9.30;99.90
10249;DHT22;5169;50.560;9.714;2024-02-04T10:56:22;9.30;99.90
10249;DHT22;5169;50.560;9.714;2024-02-04T10:58:49;9.40;99.90
10249;DHT22;5169;50.560;9.714;2024-02-04T11:01:14;9.40;99.90
10249;DHT22;5169;50.560;9.714;2024-02-04T11:03:41;9.50;99.90
10249;DHT22;5169;50.560;9.714;2024-02-04T11:06:10;9.50;99.90
10249;DHT22;5169;50.560;9.714;2024-02-04T11:08:40;9.50;99.90
10249;DHT22;5169;50.560;9.714;2024-02-04T11:11:09;9.60;99.90
10249;DHT22;5169;50.560;9.714;2024-02-04T11:13:35;9.60;99.90
10249;DHT22;5169;50.560;9.714;2024-02-04T11:16:12;9.70;99.90
10249;DHT22;5169;50.560;9.714;2024-02-04T11:22:17;9.60;99.90
10249;DHT22;5169;50.560;9.714;2024-02-04T11:27:31;9.50;99.90
10249;DHT22;5169;50.560;9.714;2024-02-04T11:29:57;9.50;99.90
10249;DHT22;5169;50.560;9.714;2024-02-04T11:32:24;9.50;99.90
10249;DHT22;5169;50.560;9.714;2024-02-04T11:34:50;9.60;99.90
10249;DHT22;5169;50.560;9.714;2024-02-04T11:37:18;9.60;99.90
10249;DHT22;5169;50.560;9.714;2024-02-04T11:39:52;9.60;99.90
10249;DHT22;5169;50.560;9.714;2024-02-04T11:42:23;9.60;99.90
10249;DHT22;5169;50.560;9.714;2024-02-04T11:45:09;9.70;99.90
10249;DHT22;5169;50.560;9.714;2024-02-04T11:47:37;9.80;99.90
10249;DHT22;5169;50.560;9.714;2024-02-04T11:50:06;9.80;99.90
10249;DHT22;5169;50.560;9.714;2024-02-04T11:52:37;10.00;99.90
10249;DHT22;5169;50.560;9.714;2024-02-04T11:55:03;10.20;99.90
10249;DHT22;5169;50.560;9.714;2024-02-04T11:57:32;10.20;99.90
10249;DHT22;5169;50.560;9.714;2024-02-04T11:59:58;10.30;99.90
10249;DHT22;5169;50.560;9.714;2024-02-04T12:02:26;10.40;99.90
10249;DHT22;5169;50.560;9.714;2024-02-04T12:04:52;10.40;99.90
10249;DHT22;5169;50.560;9.714;2024-02-04T12:07:21;10.30;99.90
10249;DHT22;5169;50.560;9.714;2024-02-04T12:09:47;10.20;99.90
10249;DHT22;5169;50.560;9.714;2024-02-04T12:12:16;10.10;99.90
10249;DHT22;5169;50.560;9.714;2024-02-04T12:14:47;10.10;99.90
10249;DHT22;5169;50.560;9.714;2024-02-04T12:17:15;10.20;99.90
10249;DHT22;5169;50.560;9.714;2024-02-04T12:19:41;10.10;99.90
10249;DHT22;5169;50.560;9.714;2024-02-04T12:22:07;10.20;99.90
10249;DHT22;5169;50.560;9.714;2024-02-04T12:24:36;10.30;99.90
10249;DHT22;5169;50.560;9.714;2024-02-04T12:27:03;10.60;99.90
10249;DHT22;5169;50.560;9.714;2024-02-04T12:29:29;10.90;99.90
10249;DHT22;5169;50.560;9.714;2024-02-04T12:32:02;11.10;99.90
10249;DHT22;5169;50.560;9.714;2024-02-04T12:34:29;10.90;99.90
10249;DHT22;5169;50.560;9.714;2024-02-04T12:37:03;10.60;99.90
10249;DHT22;5169;50.560;9.714;2024-02-04T12:39:29;10.50;99.90
10249;DHT22;5169;50.560;9.714;2024-02-04T12:42:00;10.40;99.90
10249;DHT22;5169;50.560;9.714;2024-02-04T12:44:31;10.40;99.90
10249;DHT22;5169;50.560;9.714;2024-02-04T12:46:59;10.40;99.90
10249;DHT22;5169;50.560;9.714;2024-02-04T12:49:27;10.50;99.90
10249;DHT22;5169;50.560;9.714;2024-02-04T12:52:07;10.80;99.90
10249;DHT22;5169;50.560;9.714;2024-02-04T12:54:43;11.80;99.90
10249;DHT22;5169;50.560;9.714;2024-02-04T12:57:10;12.10;99.90
10249;DHT22;5169;50.560;9.714;2024-02-04T12:59:37;11.80;99.90
10249;DHT22;5169;50.560;9.714;2024-02-04T13:02:07;11.30;99.90
10249;DHT22;5169;50.560;9.714;2024-02-04T13:04:42;11.00;99.90
10249;DHT22;5169;50.560;9.714;2024-02-04T13:07:10;10.90;99.90
10249;DHT22;5169;50.560;9.714;2024-02-04T13:09:37;11.00;99.90
10249;DHT22;5169;50.560;9.714;2024-02-04T13:12:06;11.10;99.90
10249;DHT22;5169;50.560;9.714;2024-02-04T13:14:38;11.00;99.90
10249;DHT22;5169;50.560;9.714;2024-02-04T13:17:05;10.90;99.90
10249;DHT22;5169;50.560;9.714;2024-02-04T13:19:38;10.60;99.90
10249;DHT22;5169;50.560;9.714;2024-02-04T13:22:09;10.50;99.90
10249;DHT22;5169;50.560;9.714;2024-02-04T13:24:35;10.50;99.90
10249;DHT22;5169;50.560;9.714;2024-02-04T13:27:01;10.40;99.90
10249;DHT22;5169;50.560;9.714;2024-02-04T13:29:28;10.40;99.90
10249;DHT22;5169;50.560;9.714;2024-02-04T13:31:54;10.40;99.90
10249;DHT22;5169;50.560;9.714;2024-02-04T13:34:21;10.30;99.90
10249;DHT22;5169;50.560;9.714;2024-02-04T13:36:49;10.20;99.90
10249;DHT22;5169;50.560;9.714;2024-02-04T13:39:15;10.30;99.90
10249;DHT22;5169;50.560;9.714;2024-02-04T13:41:45;10.30;99.90
10249;DHT22;5169;50.560;9.714;2024-02-04T13:44:11;10.40;99.90
10249;DHT22;5169;50.560;9.714;2024-02-04T13:46:37;10.50;99.90
10249;DHT22;5169;50.560;9.714;2024-02-04T13:49:04;10.50;99.90
10249;DHT22;5169;50.560;9.714;2024-02-04T13:51:31;10.50;99.90
10249;DHT22;5169;50.560;9.714;2024-02-04T13:53:57;10.50;99.90
10249;DHT22;5169;50.560;9.714;2024-02-04T13:56:25;10.50;99.90
10249;DHT22;5169;50.560;9.714;2024-02-04T13:58:55;10.50;99.90
10249;DHT22;5169;50.560;9.714;2024-02-04T14:01:22;10.50;99.90
10249;DHT22;5169;50.560;9.714;2024-02-04T14:03:48;10.40;99.90
10249;DHT22;5169;50.560;9.714;2024-02-04T14:06:15;10.40;99.90
10249;DHT22;5169;50.560;9.714;2024-02-04T14:08:41;10.40;99.90
10249;DHT22;5169;50.560;9.714;2024-02-04T14:11:06;10.30;99.90
10249;DHT22;5169;50.560;9.714;2024-02-04T14:13:32;10.30;99.90
10249;DHT22;5169;50.560;9.714;2024-02-04T14:15:58;10.30;99.90
10249;DHT22;5169;50.560;9.714;2024-02-04T14:18:26;10.20;99.90
10249;DHT22;5169;50.560;9.714;2024-02-04T14:20:52;10.30;99.90
10249;DHT22;5169;50.560;9.714;2024-02-04T14:23:18;10.20;99.90
10249;DHT22;5169;50.560;9.714;2024-02-04T14:25:44;10.20;99.90
10249;DHT22;5169;50.560;9.714;2024-02-04T14:28:11;10.20;99.90
10249;DHT22;5169;50.560;9.714;2024-02-04T14:30:37;10.10;99.90
10249;DHT22;5169;50.560;9.714;2024-02-04T14:33:03;10.20;99.90
10249;DHT22;5169;50.560;9.714;2024-02-04T14:35:28;10.20;99.90
10249;DHT22;5169;50.560;9.714;2024-02-04T14:37:56;10.20;99.90
10249;DHT22;5169;50.560;9.714;2024-02-04T14:40:22;10.10;99.90
10249;DHT22;5169;50.560;9.714;2024-02-04T14:42:47;10.00;99.90
10249;DHT22;5169;50.560;9.714;2024-02-04T14:45:13;10.00;99.90
10249;DHT22;5169;50.560;9.714;2024-02-04T14:47:39;10.00;99.90
10249;DHT22;5169;50.560;9.714;2024-02-04T14:50:05;9.90;99.90
10249;DHT22;5169;50.560;9.714;2024-02-04T14:52:33;9.90;99.90
10249;DHT22;5169;50.560;9.714;2024-02-04T14:54:59;9.90;99.90
10249;DHT22;5169;50.560;9.714;2024-02-04T14:57:25;9.80;99.90
10249;DHT22;5169;50.560;9.714;2024-02-04T14:59:57;9.80;99.90
10249;DHT22;5169;50.560;9.714;2024-02-04T15:02:23;9.80;99.90
10249;DHT22;5169;50.560;9.714;2024-02-04T15:04:50;9.80;99.90
10249;DHT22;5169;50.560;9.714;2024-02-04T15:07:17;9.80;99.90
10249;DHT22;5169;50.560;9.714;2024-02-04T15:09:45;9.80;99.90
10249;DHT22;5169;50.560;9.714;2024-02-04T15:12:16;9.80;99.90
10249;DHT22;5169;50.560;9.714;2024-02-04T15:14:44;9.70;99.90
10249;DHT22;5169;50.560;9.714;2024-02-04T15:17:12;9.70;99.90
10249;DHT22;5169;50.560;9.714;2024-02-04T15:19:40;9.70;99.90
10249;DHT22;5169;50.560;9.714;2024-02-04T15:22:06;9.60;99.90
10249;DHT22;5169;50.560;9.714;2024-02-04T15:24:32;9.60;99.90
10249;DHT22;5169;50.560;9.714;2024-02-04T15:27:01;9.60;99.90
10249;DHT22;5169;50.560;9.714;2024-02-04T15:29:34;9.60;99.90
10249;DHT22;5169;50.560;9.714;2024-02-04T15:32:03;9.60;99.90
10249;DHT22;5169;50.560;9.714;2024-02-04T15:34:30;9.60;99.90
10249;DHT22;5169;50.560;9.714;2024-02-04T15:37:03;9.60;99.90
10249;DHT22;5169;50.560;9.714;2024-02-04T15:39:29;9.60;99.90
10249;DHT22;5169;50.560;9.714;2024-02-04T15:41:57;9.60;99.90
10249;DHT22;5169;50.560;9.714;2024-02-04T15:44:23;9.60;99.90
10249;DHT22;5169;50.560;9.714;2024-02-04T15:46:51;9.60;99.90
10249;DHT22;5169;50.560;9.714;2024-02-04T15:49:19;9.60;99.90
10249;DHT22;5169;50.560;9.714;2024-02-04T15:51:48;9.70;99.90
10249;DHT22;5169;50.560;9.714;2024-02-04T15:54:17;9.60;99.90
10249;DHT22;5169;50.560;9.714;2024-02-04T15:56:43;9.60;99.90
10249;DHT22;5169;50.560;9.714;2024-02-04T15:59:13;9.70;99.90
10249;DHT22;5169;50.560;9.714;2024-02-04T16:01:41;9.70;99.90
10249;DHT22;5169;50.560;9.714;2024-02-04T16:04:13;9.70;99.90
10249;DHT22;5169;50.560;9.714;2024-02-04T16:06:45;9.70;99.90
10249;DHT22;5169;50.560;9.714;2024-02-04T16:09:13;9.70;99.90
10249;DHT22;5169;50.560;9.714;2024-02-04T16:11:56;9.70;99.90
10249;DHT22;5169;50.560;9.714;2024-02-04T16:14:25;9.70;99.90
10249;DHT22;5169;50.560;9.714;2024-02-04T16:17:03;9.70;99.90